createdAt,value
2019-05-23T00:00:54.862Z,7.11
2019-05-23T00:03:40.125Z,7.13
2019-05-23T00:06:25.150Z,7.11
2019-05-23T00:09:10.331Z,7.12
2019-05-23T00:11:40.086Z,7.18
2019-05-23T00:14:08.250Z,7.23
2019-05-23T00:16:36.921Z,7.22
2019-05-23T00:19:04.309Z,7.16
2019-05-23T00:21:31.655Z,7.14
2019-05-23T00:23:58.709Z,7.21
2019-05-23T00:26:25.758Z,7.32
2019-05-23T00:29:08.984Z,7.33
2019-05-23T00:31:22.214Z,7.30
2019-05-23T00:33:49.548Z,7.22
2019-05-23T00:36:17.664Z,7.15
2019-05-23T00:38:45.084Z,7.10
2019-05-23T00:41:12.452Z,7.09
2019-05-23T00:43:39.788Z,7.07
2019-05-23T00:46:07.182Z,7.06
2019-05-23T00:48:34.524Z,7.05
2019-05-23T00:51:04.963Z,7.05
2019-05-23T00:53:30.952Z,7.12
2019-05-23T00:55:58.307Z,7.20
2019-05-23T00:58:25.353Z,7.18
2019-05-23T01:00:52.731Z,7.12
2019-05-23T01:03:20.082Z,7.07
2019-05-23T01:05:47.219Z,7.04
2019-05-23T01:08:14.265Z,6.97
2019-05-23T01:10:41.316Z,6.91
2019-05-23T01:13:08.669Z,6.89
2019-05-23T01:15:37.144Z,6.85
2019-05-23T01:18:04.522Z,6.81
2019-05-23T01:20:31.855Z,6.78
2019-05-23T01:22:59.212Z,6.74
2019-05-23T01:25:26.571Z,6.70
2019-05-23T01:27:53.921Z,6.68
2019-05-23T01:30:21.299Z,6.69
2019-05-23T01:32:48.344Z,6.74
2019-05-23T01:35:15.716Z,6.76
2019-05-23T01:37:43.051Z,6.76
2019-05-23T01:40:10.122Z,6.80
2019-05-23T01:42:37.158Z,6.85
2019-05-23T01:45:04.489Z,6.93
2019-05-23T01:47:31.521Z,7.03
2019-05-23T01:49:59.057Z,7.13
2019-05-23T01:52:26.151Z,7.21
2019-05-23T01:54:53.214Z,7.25
2019-05-23T01:57:20.257Z,7.26
2019-05-23T01:59:47.611Z,7.28
2019-05-23T02:02:14.924Z,7.37
2019-05-23T02:04:42.304Z,7.43
2019-05-23T02:07:09.600Z,7.46
2019-05-23T02:09:36.908Z,7.48
2019-05-23T02:12:04.271Z,7.51
2019-05-23T02:14:31.373Z,7.53
2019-05-23T02:16:58.445Z,7.47
2019-05-23T02:19:25.821Z,7.39
2019-05-23T02:21:53.116Z,7.33
2019-05-23T02:24:20.245Z,7.26
2019-05-23T02:26:47.596Z,7.23
2019-05-23T02:29:14.953Z,7.20
2019-05-23T02:31:42.287Z,7.18
2019-05-23T02:34:09.639Z,7.11
2019-05-23T02:36:37.013Z,7.02
2019-05-23T02:39:04.036Z,6.93
2019-05-23T02:41:31.091Z,6.92
2019-05-23T02:43:58.451Z,6.93
2019-05-23T02:46:25.499Z,6.94
2019-05-23T02:48:52.534Z,6.91
2019-05-23T02:51:19.639Z,6.89
2019-05-23T02:53:46.625Z,6.92
2019-05-23T02:56:13.675Z,6.96
2019-05-23T02:58:40.711Z,7.03
2019-05-23T03:01:08.030Z,7.10
2019-05-23T03:03:35.343Z,7.08
2019-05-23T03:06:02.402Z,6.97
2019-05-23T03:08:29.744Z,6.87
2019-05-23T03:10:57.123Z,6.78
2019-05-23T03:13:24.176Z,6.70
2019-05-23T03:15:51.504Z,6.66
2019-05-23T03:18:18.561Z,6.60
2019-05-23T03:20:45.912Z,6.56
2019-05-23T03:23:13.264Z,6.54
2019-05-23T03:25:40.638Z,6.55
2019-05-23T03:28:07.692Z,6.58
2019-05-23T03:30:34.983Z,6.61
2019-05-23T03:33:02.077Z,6.60
2019-05-23T03:35:29.157Z,6.59
2019-05-23T03:37:56.198Z,6.62
2019-05-23T03:40:24.305Z,6.71
2019-05-23T03:42:51.357Z,6.97
2019-05-23T03:45:18.759Z,7.33
2019-05-23T03:47:45.819Z,7.80
2019-05-23T03:50:13.142Z,8.30
2019-05-23T03:52:40.499Z,8.89
2019-05-23T03:55:07.859Z,9.56
2019-05-23T03:57:35.232Z,10.22
2019-05-23T04:00:02.276Z,10.95
2019-05-23T04:02:30.746Z,11.72
2019-05-23T04:04:58.110Z,12.47
2019-05-23T04:07:26.323Z,13.14
2019-05-23T04:09:53.624Z,13.82
2019-05-23T04:12:20.923Z,14.61
2019-05-23T04:14:47.970Z,15.41
2019-05-23T04:17:15.283Z,16.08
2019-05-23T04:19:42.335Z,16.67
2019-05-23T04:22:09.686Z,17.42
2019-05-23T04:24:37.057Z,18.04
2019-05-23T04:27:04.112Z,18.64
2019-05-23T04:29:31.439Z,19.22
2019-05-23T04:32:07.983Z,19.67
2019-05-23T04:34:27.792Z,20.05
2019-05-23T04:36:54.881Z,20.68
2019-05-23T04:39:22.196Z,21.61
2019-05-23T04:41:49.563Z,22.43
2019-05-23T04:44:16.629Z,23.40
2019-05-23T04:46:43.663Z,24.33
2019-05-23T04:49:10.716Z,25.19
2019-05-23T04:51:37.756Z,25.83
2019-05-23T04:54:06.248Z,26.19
2019-05-23T04:56:33.375Z,26.51
2019-05-23T04:59:01.481Z,26.84
2019-05-23T05:01:28.605Z,27.31
2019-05-23T05:03:57.592Z,27.79
2019-05-23T05:06:24.951Z,28.02
2019-05-23T05:08:53.957Z,28.20
2019-05-23T05:11:20.982Z,28.28
2019-05-23T05:13:48.340Z,28.34
2019-05-23T05:16:15.694Z,28.73
2019-05-23T05:18:43.054Z,28.42
2019-05-23T05:21:10.425Z,28.41
2019-05-23T05:23:37.482Z,28.60
2019-05-23T05:26:04.808Z,28.70
2019-05-23T05:28:31.969Z,28.85
2019-05-23T05:30:59.330Z,28.78
2019-05-23T05:33:26.654Z,28.37
2019-05-23T05:35:54.049Z,28.52
2019-05-23T05:38:21.116Z,27.97
2019-05-23T05:40:48.164Z,28.23
2019-05-23T05:43:15.600Z,28.51
2019-05-23T05:45:42.948Z,28.68
2019-05-23T05:48:10.023Z,28.78
2019-05-23T05:50:37.435Z,28.66
2019-05-23T05:53:04.499Z,28.38
2019-05-23T05:55:31.863Z,27.37
2019-05-23T05:58:00.320Z,26.36
2019-05-23T06:00:27.698Z,25.75
2019-05-23T06:03:04.295Z,25.28
2019-05-23T06:05:23.820Z,24.35
2019-05-23T06:07:51.181Z,23.49
2019-05-23T06:10:18.541Z,22.94
2019-05-23T06:12:46.024Z,22.84
2019-05-23T06:15:13.272Z,22.69
2019-05-23T06:17:40.596Z,23.03
2019-05-23T06:20:07.955Z,23.57
2019-05-23T06:22:35.309Z,23.58
2019-05-23T06:25:03.481Z,23.87
2019-05-23T06:27:31.664Z,24.44
2019-05-23T06:29:59.027Z,24.17
2019-05-23T06:32:26.143Z,23.92
2019-05-23T06:34:53.272Z,24.26
2019-05-23T06:37:21.901Z,24.68
2019-05-23T06:39:49.427Z,24.35
2019-05-23T06:42:16.811Z,24.34
2019-05-23T06:44:44.185Z,23.22
2019-05-23T06:47:11.227Z,22.61
2019-05-23T06:49:38.284Z,22.64
2019-05-23T06:52:05.401Z,22.69
2019-05-23T06:54:32.765Z,22.81
2019-05-23T06:57:00.119Z,22.60
2019-05-23T06:59:27.175Z,22.81
2019-05-23T07:01:54.466Z,23.15
2019-05-23T07:04:21.879Z,22.77
2019-05-23T07:06:48.996Z,21.98
2019-05-23T07:09:16.052Z,21.44
2019-05-23T07:11:43.100Z,21.33
2019-05-23T07:14:10.497Z,21.22
2019-05-23T07:16:37.570Z,21.28
2019-05-23T07:19:04.657Z,21.25
2019-05-23T07:21:31.705Z,22.06
2019-05-23T07:23:59.119Z,22.54
2019-05-23T07:26:26.160Z,22.57
2019-05-23T07:28:53.262Z,22.51
2019-05-23T07:31:21.293Z,21.64
2019-05-23T07:34:01.250Z,21.32
2019-05-23T07:36:17.706Z,21.95
2019-05-23T07:38:45.056Z,22.72
2019-05-23T07:41:12.125Z,22.33
2019-05-23T07:43:39.213Z,22.09
2019-05-23T07:46:06.629Z,21.39
2019-05-23T07:48:33.662Z,20.66
2019-05-23T07:51:00.748Z,20.16
2019-05-23T07:53:28.067Z,20.79
2019-05-23T07:55:55.413Z,20.11
2019-05-23T07:58:22.451Z,19.82
2019-05-23T08:00:50.744Z,19.87
2019-05-23T08:03:18.098Z,20.11
2019-05-23T08:05:45.474Z,19.48
2019-05-23T08:08:12.627Z,19.48
2019-05-23T08:10:39.828Z,19.49
2019-05-23T08:13:06.872Z,19.91
2019-05-23T08:15:33.917Z,19.76
2019-05-23T08:18:01.320Z,19.08
2019-05-23T08:20:28.665Z,18.58
2019-05-23T08:22:56.037Z,18.01
2019-05-23T08:25:23.317Z,17.76
2019-05-23T08:27:50.361Z,18.07
2019-05-23T08:30:17.666Z,19.04
2019-05-23T08:32:44.738Z,19.93
2019-05-23T08:35:16.395Z,19.99
2019-05-23T08:37:40.526Z,19.90
2019-05-23T08:40:07.562Z,19.72
2019-05-23T08:42:34.615Z,20.19
2019-05-23T08:45:02.045Z,20.61
2019-05-23T08:47:29.363Z,20.90
2019-05-23T08:49:56.395Z,20.85
2019-05-23T08:52:23.729Z,20.53
2019-05-23T08:54:51.131Z,20.25
2019-05-23T08:57:18.489Z,19.90
2019-05-23T08:59:45.840Z,19.15
2019-05-23T09:02:13.187Z,19.46
2019-05-23T09:05:01.343Z,20.28
2019-05-23T09:07:10.252Z,20.77
2019-05-23T09:09:37.280Z,20.49
2019-05-23T09:12:04.355Z,20.31
2019-05-23T09:14:31.467Z,19.91
2019-05-23T09:16:58.893Z,19.29
2019-05-23T09:19:25.959Z,19.10
2019-05-23T09:21:57.451Z,19.14
2019-05-23T09:24:22.065Z,19.28
2019-05-23T09:26:49.116Z,19.82
2019-05-23T09:29:16.459Z,19.95
2019-05-23T09:31:43.816Z,20.53
2019-05-23T09:34:11.101Z,20.61
2019-05-23T09:36:38.513Z,20.24
2019-05-23T09:39:05.555Z,19.76
2019-05-23T09:41:32.586Z,19.81
2019-05-23T09:43:59.708Z,19.94
2019-05-23T09:46:26.746Z,20.23
2019-05-23T09:48:54.053Z,20.76
2019-05-23T09:51:21.409Z,21.68
2019-05-23T09:53:48.536Z,21.55
2019-05-23T09:56:15.934Z,21.30
2019-05-23T09:58:43.271Z,21.33
2019-05-23T10:01:11.372Z,20.93
2019-05-23T10:03:38.598Z,20.34
2019-05-23T10:06:05.634Z,19.93
2019-05-23T10:08:33.004Z,20.32
2019-05-23T10:11:00.442Z,20.84
2019-05-23T10:13:38.368Z,21.88
2019-05-23T10:15:56.739Z,22.97
2019-05-23T10:18:24.012Z,23.90
2019-05-23T10:20:51.312Z,24.86
2019-05-23T10:23:18.442Z,25.31
2019-05-23T10:25:45.833Z,24.50
2019-05-23T10:28:12.885Z,22.89
2019-05-23T10:30:40.216Z,22.83
2019-05-23T10:33:12.000Z,23.47
2019-05-23T10:35:36.374Z,23.82
2019-05-23T10:38:03.424Z,23.96
2019-05-23T10:40:30.452Z,24.03
2019-05-23T10:42:57.482Z,25.13
2019-05-23T10:45:24.860Z,25.23
2019-05-23T10:47:51.902Z,25.42
2019-05-23T10:50:19.209Z,24.26
2019-05-23T10:52:46.245Z,23.45
2019-05-23T10:55:13.569Z,23.90
2019-05-23T10:57:40.925Z,24.67
2019-05-23T11:00:07.977Z,23.68
2019-05-23T11:02:35.448Z,23.18
2019-05-23T11:05:12.243Z,23.08
2019-05-23T11:07:31.260Z,23.05
2019-05-23T11:09:58.634Z,24.03
2019-05-23T11:12:25.979Z,25.04
2019-05-23T11:14:53.036Z,25.39
2019-05-23T11:17:20.403Z,25.29
2019-05-23T11:19:47.735Z,24.40
2019-05-23T11:22:15.097Z,23.78
2019-05-23T11:24:42.440Z,23.76
2019-05-23T11:27:09.812Z,24.44
2019-05-23T11:29:37.171Z,24.90
2019-05-23T11:32:04.225Z,25.93
2019-05-23T11:34:31.555Z,26.66
2019-05-23T11:36:58.592Z,27.06
2019-05-23T11:39:25.972Z,27.32
2019-05-23T11:41:52.997Z,27.59
2019-05-23T11:44:20.371Z,26.92
2019-05-23T11:46:47.716Z,27.56
2019-05-23T11:49:14.767Z,28.00
2019-05-23T11:51:42.139Z,26.94
2019-05-23T11:54:10.128Z,26.24
2019-05-23T11:56:37.752Z,26.31
2019-05-23T11:59:04.804Z,26.82
2019-05-23T12:01:32.159Z,27.75
2019-05-23T12:03:59.525Z,28.25
2019-05-23T12:06:26.864Z,28.38
2019-05-23T12:08:54.196Z,28.85
2019-05-23T12:11:21.594Z,28.49
2019-05-23T12:13:48.868Z,28.63
2019-05-23T12:16:16.996Z,28.72
2019-05-23T12:18:44.355Z,27.91
2019-05-23T12:21:11.708Z,26.85
2019-05-23T12:23:39.085Z,25.56
2019-05-23T12:26:06.422Z,25.80
2019-05-23T12:28:33.777Z,26.28
2019-05-23T12:31:00.826Z,25.98
2019-05-23T12:33:28.202Z,24.64
2019-05-23T12:35:55.533Z,22.81
2019-05-23T12:38:22.894Z,21.57
2019-05-23T12:40:50.244Z,22.08
2019-05-23T12:43:17.606Z,23.23
2019-05-23T12:45:44.973Z,23.97
2019-05-23T12:48:12.336Z,24.27
2019-05-23T12:50:39.377Z,24.25
2019-05-23T12:53:06.409Z,23.34
2019-05-23T12:55:33.458Z,22.38
2019-05-23T12:58:00.501Z,21.66
2019-05-23T13:00:27.907Z,21.18
2019-05-23T13:02:54.908Z,21.10
2019-05-23T13:05:22.219Z,21.27
2019-05-23T13:07:49.621Z,21.03
2019-05-23T13:10:16.660Z,20.45
2019-05-23T13:12:43.783Z,20.51
2019-05-23T13:15:11.177Z,20.53
2019-05-23T13:17:38.490Z,20.47
2019-05-23T13:20:05.528Z,20.64
2019-05-23T13:22:32.634Z,20.69
2019-05-23T13:24:59.675Z,20.53
2019-05-23T13:27:27.040Z,20.22
2019-05-23T13:29:54.076Z,19.85
2019-05-23T13:32:21.448Z,19.64
2019-05-23T13:34:48.506Z,19.55
2019-05-23T13:37:17.158Z,19.44
2019-05-23T13:39:44.647Z,19.44
2019-05-23T13:42:11.989Z,19.30
2019-05-23T13:44:39.026Z,19.02
2019-05-23T13:47:06.404Z,18.78
2019-05-23T13:49:33.436Z,18.94
2019-05-23T13:52:00.560Z,19.08
2019-05-23T13:54:27.930Z,19.16
2019-05-23T13:56:55.282Z,19.10
2019-05-23T13:59:23.564Z,19.02
2019-05-23T14:01:50.658Z,18.89
2019-05-23T14:04:17.793Z,18.75
2019-05-23T14:06:45.025Z,18.67
2019-05-23T14:09:13.292Z,18.66
2019-05-23T14:11:40.669Z,18.63
2019-05-23T14:14:09.262Z,18.66
2019-05-23T14:16:36.534Z,18.79
2019-05-23T14:19:03.838Z,18.88
2019-05-23T14:21:31.001Z,18.90
2019-05-23T14:23:57.997Z,18.97
2019-05-23T14:26:25.413Z,19.04
2019-05-23T14:28:52.761Z,18.90
2019-05-23T14:31:20.108Z,18.74
2019-05-23T14:33:47.458Z,18.53
2019-05-23T14:36:14.809Z,18.46
2019-05-23T14:38:42.265Z,18.50
2019-05-23T14:41:09.297Z,18.59
2019-05-23T14:43:36.365Z,18.63
2019-05-23T14:46:03.488Z,18.61
2019-05-23T14:48:30.869Z,18.72
2019-05-23T14:50:57.918Z,18.69
2019-05-23T14:53:25.292Z,18.63
2019-05-23T14:55:52.354Z,18.61
2019-05-23T14:58:19.691Z,18.62
2019-05-23T15:00:47.051Z,18.57
2019-05-23T15:03:14.177Z,18.52
2019-05-23T15:05:42.458Z,18.47
2019-05-23T15:08:09.813Z,18.46
2019-05-23T15:10:36.842Z,18.52
2019-05-23T15:13:04.252Z,18.64
2019-05-23T15:15:31.677Z,18.71
2019-05-23T15:17:58.772Z,18.67
2019-05-23T15:20:25.928Z,18.55
2019-05-23T15:28:17.037Z,18.57
2019-05-23T15:30:50.437Z,18.58
2019-05-23T15:33:17.589Z,18.52
2019-05-23T15:35:44.617Z,18.46
2019-05-23T15:41:02.271Z,18.37
2019-05-23T15:43:29.626Z,18.42
2019-05-23T15:45:56.968Z,18.45
2019-05-23T15:48:24.022Z,18.40
2019-05-23T15:50:51.209Z,18.33
2019-05-23T15:53:18.525Z,18.30
2019-05-23T15:55:45.810Z,18.29
2019-05-23T15:58:12.853Z,18.27
2019-05-23T16:00:40.177Z,18.22
2019-05-23T16:03:07.637Z,18.14
2019-05-23T16:05:35.050Z,18.12
2019-05-23T16:08:02.571Z,18.14
2019-05-23T16:10:29.604Z,18.15
2019-05-23T16:12:57.717Z,18.19
2019-05-23T16:15:24.750Z,18.15
2019-05-23T16:17:52.078Z,18.13
2019-05-23T16:20:19.431Z,18.12
2019-05-23T16:25:20.678Z,18.13
2019-05-23T16:27:48.799Z,18.13
2019-05-23T16:30:15.838Z,18.09
2019-05-23T16:32:46.455Z,18.05
2019-05-23T16:35:11.902Z,18.04
2019-05-23T16:37:39.010Z,18.02
2019-05-23T16:40:25.529Z,18.03
2019-05-23T16:42:52.585Z,18.04
2019-05-23T16:45:19.916Z,18.03
2019-05-23T16:47:46.966Z,17.98
2019-05-23T16:50:14.002Z,17.93
2019-05-23T16:52:41.045Z,17.89
2019-05-23T16:55:08.409Z,17.83
2019-05-23T16:57:35.786Z,17.81
2019-05-23T17:00:03.122Z,17.79
2019-05-23T17:02:32.145Z,17.78
2019-05-23T17:05:09.157Z,17.75
2019-05-23T17:07:28.257Z,17.72
2019-05-23T17:10:07.582Z,17.70
2019-05-23T17:12:27.520Z,17.63
2019-05-23T17:14:54.829Z,17.58
2019-05-23T17:17:42.919Z,17.61
2019-05-23T17:19:51.829Z,17.65
2019-05-23T17:22:18.863Z,17.61
2019-05-23T17:24:45.911Z,17.55
2019-05-23T17:27:13.202Z,17.52
2019-05-23T17:29:40.249Z,17.47
2019-05-23T17:32:07.285Z,17.46
2019-05-23T17:34:34.336Z,17.43
2019-05-23T17:37:01.644Z,17.40
2019-05-23T17:39:28.700Z,17.32
2019-05-23T17:41:56.042Z,17.28
2019-05-23T17:44:23.114Z,17.20
2019-05-23T17:46:50.144Z,17.13
2019-05-23T17:49:17.197Z,17.12
2019-05-23T17:51:44.503Z,17.09
2019-05-23T17:54:11.548Z,17.03
2019-05-23T17:56:39.064Z,16.96
2019-05-23T17:59:06.400Z,16.86
2019-05-23T18:01:33.434Z,16.77
2019-05-23T18:04:01.727Z,16.72
2019-05-23T18:06:28.832Z,16.64
2019-05-23T18:08:56.240Z,16.57
2019-05-23T18:11:23.272Z,16.53
2019-05-23T18:13:50.334Z,16.47
2019-05-23T18:16:17.376Z,16.43
2019-05-23T18:18:44.689Z,16.35
2019-05-23T18:21:12.090Z,16.22
2019-05-23T18:23:39.150Z,16.14
2019-05-23T18:26:06.167Z,16.06
2019-05-23T18:28:33.538Z,15.97
2019-05-23T18:31:00.846Z,15.87
2019-05-23T18:33:28.121Z,15.74
2019-05-23T18:35:55.523Z,15.65
2019-05-23T18:38:22.646Z,15.55
2019-05-23T18:41:02.845Z,15.48
2019-05-23T18:43:18.811Z,15.40
2019-05-23T18:45:45.858Z,15.35
2019-05-23T18:48:13.301Z,15.29
2019-05-23T18:50:40.368Z,15.22
2019-05-23T18:53:07.821Z,15.19
2019-05-23T18:55:34.874Z,15.09
2019-05-23T18:58:01.916Z,14.99
2019-05-23T19:00:29.262Z,14.93
2019-05-23T19:02:56.406Z,14.88
2019-05-23T19:05:26.730Z,14.83
2019-05-23T19:07:52.196Z,14.76
2019-05-23T19:10:23.698Z,14.69
2019-05-23T19:12:50.735Z,14.62
2019-05-23T19:15:17.788Z,14.58
2019-05-23T19:17:45.172Z,14.52
2019-05-23T19:20:12.475Z,14.48
2019-05-23T19:22:39.510Z,14.42
2019-05-23T19:25:06.908Z,14.40
2019-05-23T19:27:33.937Z,14.38
2019-05-23T19:30:00.985Z,14.36
2019-05-23T19:32:29.639Z,14.31
2019-05-23T19:34:57.163Z,14.29
2019-05-23T19:37:24.193Z,14.28
2019-05-23T19:39:51.379Z,14.24
2019-05-23T19:42:18.697Z,14.21
2019-05-23T19:44:45.745Z,14.16
2019-05-23T19:47:13.098Z,14.10
2019-05-23T19:49:40.470Z,14.03
2019-05-23T19:52:07.505Z,13.99
2019-05-23T19:54:34.550Z,13.94
2019-05-23T19:57:01.751Z,13.89
2019-05-23T19:59:28.785Z,13.84
2019-05-23T20:01:55.846Z,13.81
2019-05-23T20:04:27.059Z,13.81
2019-05-23T20:06:52.368Z,13.77
2019-05-23T20:09:19.705Z,13.72
2019-05-23T20:11:54.172Z,13.67
2019-05-23T20:14:15.851Z,13.71
2019-05-23T20:19:33.406Z,13.68
2019-05-23T20:22:00.650Z,13.56
2019-05-23T20:24:28.015Z,13.49
2019-05-23T20:26:55.057Z,13.46
2019-05-23T20:29:22.403Z,13.45
2019-05-23T20:31:49.760Z,13.43
2019-05-23T20:34:17.137Z,13.41
2019-05-23T20:36:44.491Z,13.39
2019-05-23T20:39:11.534Z,13.35
2019-05-23T20:41:38.590Z,13.35
2019-05-23T20:44:05.628Z,13.32
2019-05-23T20:46:32.978Z,13.24
2019-05-23T20:49:00.329Z,13.17
2019-05-23T20:51:27.683Z,13.11
2019-05-23T20:53:55.070Z,13.05
2019-05-23T20:56:22.115Z,13.00
2019-05-23T20:58:49.438Z,12.97
2019-05-23T21:01:16.728Z,12.89
2019-05-23T21:03:44.153Z,12.84
2019-05-23T21:06:11.210Z,12.77
2019-05-23T21:08:38.255Z,12.68
2019-05-23T21:11:05.621Z,12.70
2019-05-23T21:13:32.960Z,12.65
2019-05-23T21:15:59.993Z,12.58
2019-05-23T21:18:27.043Z,12.49
2019-05-23T21:20:54.425Z,12.37
2019-05-23T21:23:21.776Z,12.27
2019-05-23T21:25:49.122Z,12.19
2019-05-23T21:28:16.471Z,12.13
2019-05-23T21:30:43.507Z,12.07
2019-05-23T21:33:10.566Z,11.99
2019-05-23T21:35:37.798Z,11.93
2019-05-23T21:38:05.176Z,11.87
2019-05-23T21:40:32.451Z,11.79
2019-05-23T21:42:59.509Z,11.73
2019-05-23T21:45:26.545Z,11.67
2019-05-23T21:47:53.595Z,11.60
2019-05-23T21:50:20.632Z,11.57
2019-05-23T21:52:47.683Z,11.55
2019-05-23T21:55:14.719Z,11.54
2019-05-23T21:57:42.078Z,11.52
2019-05-23T22:00:09.425Z,11.50
2019-05-23T22:02:38.095Z,11.51
2019-05-23T22:05:05.476Z,11.48
2019-05-23T22:07:32.586Z,11.46
2019-05-23T22:09:59.989Z,11.41
2019-05-23T22:12:27.325Z,11.37
2019-05-23T22:14:54.690Z,11.35
2019-05-23T22:17:22.035Z,11.30
2019-05-23T22:19:49.396Z,11.25
2019-05-23T22:22:16.430Z,11.18
2019-05-23T22:24:43.492Z,11.14
2019-05-23T22:27:10.536Z,11.11
2019-05-23T22:29:37.919Z,11.08
2019-05-23T22:32:05.250Z,11.01
2019-05-23T22:34:32.601Z,10.94
2019-05-23T22:36:59.890Z,10.91
2019-05-23T22:39:26.936Z,10.85
2019-05-23T22:41:54.259Z,10.80
2019-05-23T22:44:21.613Z,10.75
2019-05-23T22:46:48.650Z,10.69
2019-05-23T22:49:15.957Z,10.67
2019-05-23T22:51:43.331Z,10.62
2019-05-23T22:54:10.376Z,10.52
2019-05-23T22:56:37.674Z,10.46
2019-05-23T22:59:04.983Z,10.44
2019-05-23T23:01:32.022Z,10.42
2019-05-23T23:03:59.171Z,10.38
2019-05-23T23:06:26.205Z,10.37
2019-05-23T23:08:53.544Z,10.36
2019-05-23T23:11:20.878Z,10.33
2019-05-23T23:13:47.931Z,10.27
2019-05-23T23:16:15.286Z,10.22
2019-05-23T23:18:42.416Z,10.17
2019-05-23T23:21:09.438Z,10.16
2019-05-23T23:23:36.471Z,10.16
2019-05-23T23:26:03.517Z,10.13
2019-05-23T23:28:30.893Z,10.13
2019-05-23T23:30:57.938Z,10.13
2019-05-23T23:33:25.351Z,10.09
2019-05-23T23:35:52.415Z,10.06
2019-05-23T23:38:19.697Z,10.05
2019-05-23T23:40:47.113Z,10.01
2019-05-23T23:43:14.150Z,9.99
2019-05-23T23:45:41.197Z,9.99
2019-05-23T23:48:08.545Z,9.95
2019-05-23T23:50:35.899Z,9.91
2019-05-23T23:53:02.937Z,9.86
2019-05-23T23:55:29.984Z,9.80
2019-05-23T23:57:57.022Z,9.74
